createdAt,value
2022-12-09T00:02:31.493Z,4.85
2022-12-09T00:05:34.220Z,4.87
2022-12-09T00:08:36.980Z,5.47
2022-12-09T00:11:39.736Z,5.00
2022-12-09T00:14:42.410Z,4.63
2022-12-09T00:17:46.900Z,5.10
2022-12-09T00:20:49.517Z,4.73
2022-12-09T00:23:53.318Z,5.90
2022-12-09T00:29:58.679Z,5.23
2022-12-09T00:33:03.236Z,5.70
2022-12-09T00:36:07.380Z,5.57
2022-12-09T00:39:12.137Z,5.93
2022-12-09T00:42:14.946Z,5.90
2022-12-09T00:45:17.681Z,5.30
2022-12-09T00:48:21.774Z,4.40
2022-12-09T00:51:26.562Z,4.60
2022-12-09T00:54:29.564Z,5.40
2022-12-09T00:57:32.872Z,4.85
2022-12-09T01:00:35.948Z,5.43
2022-12-09T01:03:40.739Z,5.47
2022-12-09T01:06:44.106Z,5.03
2022-12-09T01:09:47.143Z,4.97
2022-12-09T01:12:49.914Z,5.18
2022-12-09T01:15:52.728Z,5.57
2022-12-09T01:18:59.559Z,5.37
2022-12-09T01:22:02.647Z,5.27
2022-12-09T01:25:05.989Z,4.78
2022-12-09T01:28:08.665Z,5.32
2022-12-09T01:31:13.885Z,5.13
2022-12-09T01:34:18.194Z,4.73
2022-12-09T01:37:21.170Z,4.10
2022-12-09T01:40:24.302Z,4.22
2022-12-09T01:43:27.389Z,4.18
2022-12-09T01:46:30.465Z,4.47
2022-12-09T01:49:38.535Z,4.63
2022-12-09T01:52:41.494Z,3.80
2022-12-09T01:55:45.173Z,4.22
2022-12-09T01:58:48.420Z,3.95
2022-12-09T02:01:52.604Z,3.88
2022-12-09T02:04:56.784Z,4.03
2022-12-09T02:08:00.086Z,3.67
2022-12-09T02:11:09.431Z,4.75
2022-12-09T02:14:17.902Z,4.70
2022-12-09T02:17:28.084Z,4.03
2022-12-09T02:20:36.668Z,4.63
2022-12-09T02:23:41.609Z,4.27
2022-12-09T02:26:46.825Z,4.43
2022-12-09T02:29:58.595Z,4.47
2022-12-09T02:33:15.535Z,4.60
2022-12-09T02:36:21.547Z,6.20
2022-12-09T02:39:27.818Z,6.10
2022-12-09T02:42:33.587Z,5.50
2022-12-09T02:45:37.122Z,5.87
2022-12-09T02:48:42.474Z,4.45
2022-12-09T02:51:46.860Z,5.00
2022-12-09T02:54:49.600Z,4.40
2022-12-09T02:57:56.901Z,5.37
2022-12-09T03:00:59.894Z,5.10
2022-12-09T03:04:03.890Z,5.25
2022-12-09T03:07:14.817Z,4.75
2022-12-09T03:10:19.703Z,4.67
2022-12-09T03:13:32.242Z,4.60
2022-12-09T03:16:37.702Z,4.00
2022-12-09T03:19:44.809Z,4.77
2022-12-09T03:22:49.824Z,4.67
2022-12-09T03:25:54.883Z,4.55
2022-12-09T03:28:59.834Z,4.87
2022-12-09T03:32:03.018Z,5.03
2022-12-09T03:35:09.553Z,5.88
2022-12-09T03:38:16.621Z,5.88
2022-12-09T03:41:23.609Z,5.07
2022-12-09T03:44:31.856Z,5.93
2022-12-09T03:47:35.608Z,5.37
2022-12-09T03:53:49.793Z,5.37
2022-12-09T03:56:55.489Z,5.80
2022-12-09T04:00:00.967Z,5.20
2022-12-09T04:03:04.247Z,5.47
2022-12-09T04:06:07.647Z,5.20
2022-12-09T04:09:13.899Z,5.60
2022-12-09T04:12:17.088Z,5.83
2022-12-09T04:15:19.988Z,5.60
2022-12-09T04:18:23.625Z,6.57
2022-12-09T04:21:27.529Z,5.43
2022-12-09T04:24:31.730Z,5.50
2022-12-09T04:27:35.016Z,4.90
2022-12-09T04:30:37.718Z,5.07
2022-12-09T04:33:41.252Z,4.93
2022-12-09T04:36:43.897Z,5.63
2022-12-09T04:39:48.175Z,7.18
2022-12-09T04:42:50.786Z,5.67
2022-12-09T04:45:53.744Z,5.50
2022-12-09T04:48:56.952Z,5.25
2022-12-09T04:52:00.156Z,4.80
2022-12-09T04:55:04.677Z,5.20
2022-12-09T04:58:07.551Z,5.30
2022-12-09T05:01:15.630Z,6.17
2022-12-09T05:04:19.951Z,5.23
2022-12-09T05:07:25.352Z,5.47
2022-12-09T05:10:29.556Z,5.85
2022-12-09T05:13:32.748Z,5.17
2022-12-09T05:16:35.747Z,6.07
2022-12-09T05:19:38.856Z,5.88
2022-12-09T05:22:41.779Z,5.93
2022-12-09T05:25:46.024Z,5.57
2022-12-09T05:28:48.879Z,5.53
2022-12-09T05:31:52.611Z,5.88
2022-12-09T05:37:58.411Z,5.67
2022-12-09T05:41:02.808Z,6.22
2022-12-09T05:44:05.774Z,6.60
2022-12-09T05:47:08.676Z,6.32
2022-12-09T05:50:12.320Z,6.75
2022-12-09T05:53:15.641Z,7.53
2022-12-09T05:56:21.395Z,5.72
2022-12-09T05:59:24.316Z,6.17
2022-12-09T06:02:27.118Z,5.97
2022-12-09T06:05:30.121Z,6.88
2022-12-09T06:08:33.292Z,5.57
2022-12-09T06:11:37.671Z,5.60
2022-12-09T06:14:40.566Z,6.97
2022-12-09T06:17:43.420Z,8.77
2022-12-09T06:20:46.179Z,6.50
2022-12-09T06:23:49.794Z,6.30
2022-12-09T06:26:55.703Z,5.50
2022-12-09T06:29:58.939Z,6.47
2022-12-09T06:33:02.162Z,5.88
2022-12-09T06:36:06.587Z,5.80
2022-12-09T06:39:11.067Z,6.10
2022-12-09T06:42:15.640Z,5.90
2022-12-09T06:45:18.672Z,6.47
2022-12-09T06:48:21.664Z,7.30
2022-12-09T06:51:26.774Z,6.57
2022-12-09T06:54:30.372Z,6.43
2022-12-09T06:57:35.713Z,6.13
2022-12-09T07:00:40.437Z,6.20
2022-12-09T07:03:46.748Z,6.67
2022-12-09T07:06:49.840Z,6.03
2022-12-09T07:09:53.435Z,6.45
2022-12-09T07:12:57.583Z,5.82
2022-12-09T07:16:00.587Z,6.47
2022-12-09T07:19:04.236Z,6.57
2022-12-09T07:22:07.492Z,5.82
2022-12-09T07:25:11.196Z,6.43
2022-12-09T07:31:21.280Z,5.78
2022-12-09T07:34:24.275Z,6.07
2022-12-09T07:37:27.650Z,5.63
2022-12-09T07:40:30.944Z,6.00
2022-12-09T07:43:36.100Z,6.20
2022-12-09T07:46:39.785Z,5.30
2022-12-09T07:52:45.798Z,5.63
2022-12-09T07:55:49.004Z,5.83
2022-12-09T07:58:54.642Z,6.07
2022-12-09T08:02:04.194Z,5.83
2022-12-09T08:05:10.543Z,6.10
2022-12-09T08:08:13.949Z,6.17
2022-12-09T08:11:19.804Z,6.10
2022-12-09T08:14:23.986Z,5.90
2022-12-09T08:17:27.406Z,5.63
2022-12-09T08:20:30.966Z,5.25
2022-12-09T08:23:34.932Z,5.80
2022-12-09T08:26:39.437Z,6.30
2022-12-09T08:29:44.448Z,6.73
2022-12-09T08:32:48.514Z,6.50
2022-12-09T08:35:51.774Z,6.50
2022-12-09T08:38:55.417Z,7.07
2022-12-09T08:41:58.260Z,6.43
2022-12-09T08:45:03.256Z,6.03
2022-12-09T08:48:07.048Z,6.33
2022-12-09T08:51:11.383Z,6.63
2022-12-09T08:54:14.636Z,6.37
2022-12-09T08:57:17.938Z,7.93
2022-12-09T09:00:23.257Z,6.55
2022-12-09T09:03:27.320Z,7.10
2022-12-09T09:09:33.447Z,6.33
2022-12-09T09:12:42.370Z,6.80
2022-12-09T09:15:48.078Z,7.10
2022-12-09T09:18:52.722Z,6.23
2022-12-09T09:21:56.234Z,6.10
2022-12-09T09:24:59.549Z,7.25
2022-12-09T09:28:02.933Z,5.75
2022-12-09T09:31:09.410Z,7.10
2022-12-09T09:34:13.195Z,6.77
2022-12-09T09:37:15.986Z,7.40
2022-12-09T09:40:19.774Z,7.13
2022-12-09T09:43:25.312Z,7.47
2022-12-09T09:46:36.368Z,8.40
2022-12-09T09:49:46.260Z,6.90
2022-12-09T09:52:51.279Z,7.67
2022-12-09T09:55:58.288Z,7.93
2022-12-09T09:59:10.432Z,7.50
2022-12-09T10:02:30.844Z,7.27
2022-12-09T10:05:36.129Z,7.33
2022-12-09T10:08:43.616Z,7.23
2022-12-09T10:11:56.557Z,7.70
2022-12-09T10:15:03.540Z,7.80
2022-12-09T10:18:12.987Z,7.40
2022-12-09T10:21:18.758Z,7.80
2022-12-09T10:24:25.031Z,7.50
2022-12-09T10:27:32.146Z,7.77
2022-12-09T10:30:43.685Z,8.10
2022-12-09T10:33:50.589Z,8.10
2022-12-09T10:36:53.836Z,7.93
2022-12-09T10:40:03.444Z,8.05
2022-12-09T10:43:38.864Z,8.27
2022-12-09T10:46:42.696Z,7.87
2022-12-09T10:49:47.524Z,7.28
2022-12-09T10:52:50.772Z,8.20
2022-12-09T10:55:54.923Z,8.50
2022-12-09T10:59:10.800Z,8.77
2022-12-09T11:02:21.084Z,7.67
2022-12-09T11:05:29.071Z,9.87
2022-12-09T11:08:33.268Z,9.40
2022-12-09T11:11:41.389Z,8.93
2022-12-09T11:14:51.752Z,8.37
2022-12-09T11:17:59.856Z,8.23
2022-12-09T11:21:06.261Z,9.30
2022-12-09T11:24:21.332Z,9.13
2022-12-09T11:27:28.079Z,8.77
2022-12-09T11:30:33.348Z,8.77
2022-12-09T11:33:37.585Z,8.73
2022-12-09T11:36:44.997Z,9.10
2022-12-09T11:39:50.651Z,8.77
2022-12-09T11:42:54.652Z,9.23
2022-12-09T11:45:57.299Z,8.23
2022-12-09T11:49:03.784Z,9.07
2022-12-09T11:52:24.058Z,9.37
2022-12-09T11:55:27.846Z,9.53
2022-12-09T11:58:34.946Z,8.82
2022-12-09T12:01:45.920Z,9.43
2022-12-09T12:04:56.861Z,9.43
2022-12-09T12:11:40.882Z,8.40
2022-12-09T12:14:45.268Z,10.03
2022-12-09T12:17:50.927Z,9.83
2022-12-09T12:21:15.872Z,9.93
2022-12-09T12:24:46.826Z,8.77
2022-12-09T12:28:01.436Z,9.80
2022-12-09T12:31:13.243Z,9.30
2022-12-09T12:34:27.209Z,10.03
2022-12-09T12:37:41.335Z,9.02
2022-12-09T12:44:18.887Z,9.03
2022-12-09T12:47:24.978Z,9.03
2022-12-09T12:50:44.582Z,9.83
2022-12-09T12:53:52.475Z,9.80
2022-12-09T12:57:09.415Z,9.30
2022-12-09T13:00:16.269Z,9.57
2022-12-09T13:03:24.035Z,9.73
2022-12-09T13:06:40.853Z,8.57
2022-12-09T13:09:46.274Z,8.67
2022-12-09T13:12:56.783Z,9.60
2022-12-09T13:16:02.194Z,9.13
2022-12-09T13:19:13.401Z,10.67
2022-12-09T13:22:21.859Z,10.33
2022-12-09T13:25:28.407Z,9.50
2022-12-09T13:28:40.349Z,10.40
2022-12-09T13:31:49.431Z,10.13
2022-12-09T13:34:55.127Z,10.37
2022-12-09T13:38:01.816Z,10.30
2022-12-09T13:41:59.039Z,10.20
2022-12-09T13:45:07.624Z,9.60
2022-12-09T13:48:38.615Z,10.73
2022-12-09T13:51:45.927Z,10.87
2022-12-09T13:54:49.408Z,10.23
2022-12-09T13:57:55.285Z,9.63
2022-12-09T14:01:06.043Z,10.37
2022-12-09T14:04:15.056Z,10.60
2022-12-09T14:07:24.155Z,11.30
2022-12-09T14:10:38.383Z,10.60
2022-12-09T14:13:41.120Z,10.60
2022-12-09T14:16:45.511Z,11.23
2022-12-09T14:19:56.499Z,10.90
2022-12-09T14:23:13.516Z,10.87
2022-12-09T14:26:35.299Z,12.20
2022-12-09T14:29:54.351Z,11.93
2022-12-09T14:32:58.802Z,11.40
2022-12-09T14:36:05.307Z,12.23
2022-12-09T14:39:24.341Z,11.63
2022-12-09T14:42:36.284Z,13.07
2022-12-09T14:45:49.384Z,12.30
2022-12-09T14:48:57.192Z,12.30
2022-12-09T14:52:01.710Z,12.67
2022-12-09T14:55:08.401Z,11.50
2022-12-09T14:58:19.629Z,12.57
2022-12-09T15:01:22.468Z,13.80
2022-12-09T15:04:31.890Z,13.37
2022-12-09T15:07:35.787Z,12.67
2022-12-09T15:10:39.499Z,13.53
2022-12-09T15:13:44.303Z,12.65
2022-12-09T15:16:50.578Z,12.63
2022-12-09T15:20:02.313Z,13.57
2022-12-09T15:23:07.315Z,13.97
2022-12-09T15:26:20.466Z,13.57
2022-12-09T15:29:23.880Z,13.50
2022-12-09T15:32:29.520Z,13.82
2022-12-09T15:35:34.849Z,14.50
2022-12-09T15:38:42.336Z,14.97
2022-12-09T15:42:12.227Z,14.17
2022-12-09T15:45:17.279Z,13.90
2022-12-09T15:48:22.068Z,14.93
2022-12-09T15:51:27.146Z,15.60
2022-12-09T15:54:32.209Z,14.00
2022-12-09T15:57:36.264Z,15.00
2022-12-09T16:00:40.560Z,15.13
2022-12-09T16:03:43.358Z,15.67
2022-12-09T16:06:47.877Z,14.97
2022-12-09T16:10:07.962Z,14.77
2022-12-09T16:13:14.607Z,15.63
2022-12-09T16:16:25.655Z,15.17
2022-12-09T16:19:34.956Z,15.93
2022-12-09T16:22:39.588Z,16.40
2022-12-09T16:25:45.829Z,14.67
2022-12-09T16:28:55.678Z,16.83
2022-12-09T16:32:21.335Z,16.63
2022-12-09T16:35:27.115Z,15.53
2022-12-09T16:38:32.317Z,16.27
2022-12-09T16:41:56.700Z,15.10
2022-12-09T16:48:17.844Z,14.80
2022-12-09T16:51:24.554Z,16.23
2022-12-09T16:54:28.674Z,17.23
2022-12-09T16:57:31.592Z,17.37
2022-12-09T17:00:34.159Z,16.80
2022-12-09T17:03:39.443Z,15.93
2022-12-09T17:06:42.396Z,16.13
2022-12-09T17:09:46.557Z,18.20
2022-12-09T17:12:49.986Z,17.43
2022-12-09T17:15:58.109Z,15.57
2022-12-09T17:19:01.199Z,17.17
2022-12-09T17:22:05.637Z,20.90
2022-12-09T17:25:10.723Z,24.37
2022-12-09T17:28:13.367Z,21.07
2022-12-09T17:31:18.355Z,20.27
2022-12-09T17:34:21.555Z,20.77
2022-12-09T17:37:24.384Z,18.10
2022-12-09T17:40:28.498Z,17.33
2022-12-09T17:43:31.585Z,16.80
2022-12-09T17:46:34.912Z,17.58
2022-12-09T17:49:38.093Z,17.30
2022-12-09T17:52:42.428Z,17.42
2022-12-09T17:55:46.371Z,19.07
2022-12-09T18:01:52.314Z,16.60
2022-12-09T18:04:54.977Z,18.83
2022-12-09T18:07:57.778Z,19.47
2022-12-09T18:11:05.474Z,19.07
2022-12-09T18:14:09.885Z,19.63
2022-12-09T18:17:13.458Z,19.70
2022-12-09T18:20:16.443Z,18.98
2022-12-09T18:23:29.295Z,18.45
2022-12-09T18:26:38.303Z,18.07
2022-12-09T18:29:44.713Z,19.37
2022-12-09T18:32:47.405Z,17.35
2022-12-09T18:35:50.128Z,18.33
2022-12-09T18:38:53.863Z,19.50
2022-12-09T18:41:58.034Z,19.50
2022-12-09T18:45:00.663Z,18.13
2022-12-09T18:48:03.679Z,18.37
2022-12-09T18:51:08.646Z,18.70
2022-12-09T18:54:16.272Z,19.67
2022-12-09T18:57:20.220Z,19.10
2022-12-09T19:03:25.762Z,17.53
2022-12-09T19:06:29.878Z,18.80
2022-12-09T19:09:34.947Z,20.10
2022-12-09T19:12:46.922Z,19.60
2022-12-09T19:15:50.115Z,18.77
2022-12-09T19:18:53.593Z,18.67
2022-12-09T19:21:56.353Z,17.55
2022-12-09T19:24:59.108Z,18.53
2022-12-09T19:28:03.156Z,16.83
2022-12-09T19:31:14.175Z,18.17
2022-12-09T19:34:18.498Z,18.53
2022-12-09T19:37:21.166Z,17.33
2022-12-09T19:40:23.978Z,17.43
2022-12-09T19:43:28.097Z,19.80
2022-12-09T19:46:30.849Z,17.80
2022-12-09T19:49:33.592Z,18.63
2022-12-09T19:52:36.869Z,17.57
2022-12-09T19:55:39.929Z,18.95
2022-12-09T19:58:45.057Z,19.33
2022-12-09T20:01:47.903Z,18.13
2022-12-09T20:04:51.381Z,19.43
2022-12-09T20:07:54.724Z,17.20
2022-12-09T20:10:57.357Z,18.95
2022-12-09T20:14:02.967Z,19.10
2022-12-09T20:17:05.796Z,18.73
2022-12-09T20:20:10.694Z,16.40
2022-12-09T20:23:13.688Z,18.50
2022-12-09T20:26:18.980Z,19.03
2022-12-09T20:29:23.166Z,17.93
2022-12-09T20:32:26.043Z,18.20
2022-12-09T20:35:28.729Z,19.05
2022-12-09T20:38:31.897Z,18.23
2022-12-09T20:41:34.840Z,17.88
2022-12-09T20:44:38.971Z,16.88
2022-12-09T20:47:42.170Z,17.43
2022-12-09T20:50:45.037Z,17.58
2022-12-09T20:53:48.754Z,17.23
2022-12-09T20:56:51.467Z,17.65
2022-12-09T20:59:55.580Z,15.93
2022-12-09T21:02:58.333Z,16.47
2022-12-09T21:06:00.963Z,16.80
2022-12-09T21:09:05.284Z,16.73
2022-12-09T21:12:08.130Z,16.90
2022-12-09T21:15:12.823Z,16.43
2022-12-09T21:18:15.557Z,16.40
2022-12-09T21:21:19.103Z,15.87
2022-12-09T21:24:24.418Z,16.63
2022-12-09T21:27:27.529Z,15.30
2022-12-09T21:30:31.500Z,15.90
2022-12-09T21:33:34.653Z,16.27
2022-12-09T21:36:39.612Z,16.08
2022-12-09T21:39:42.476Z,16.80
2022-12-09T21:42:45.785Z,16.90
2022-12-09T21:45:50.662Z,17.73
2022-12-09T21:48:59.945Z,16.43
2022-12-09T21:52:07.273Z,16.83
2022-12-09T21:55:11.859Z,16.17
2022-12-09T21:58:15.072Z,14.97
2022-12-09T22:01:21.504Z,16.63
2022-12-09T22:04:24.119Z,16.27
2022-12-09T22:07:26.729Z,16.30
2022-12-09T22:10:30.370Z,16.53
2022-12-09T22:13:39.010Z,17.20
2022-12-09T22:16:45.765Z,15.40
2022-12-09T22:20:06.281Z,14.93
2022-12-09T22:23:12.777Z,15.90
2022-12-09T22:29:19.527Z,15.85
2022-12-09T22:32:23.682Z,17.30
2022-12-09T22:35:26.688Z,17.33
2022-12-09T22:38:29.350Z,15.68
2022-12-09T22:41:33.912Z,14.77
2022-12-09T22:44:36.506Z,15.00
2022-12-09T22:47:40.537Z,16.57
2022-12-09T22:50:43.176Z,16.83
2022-12-09T22:53:46.403Z,16.80
2022-12-09T22:56:49.126Z,14.63
2022-12-09T22:59:51.754Z,16.50
2022-12-09T23:02:56.041Z,14.87
2022-12-09T23:06:02.316Z,16.73
2022-12-09T23:09:05.822Z,16.73
2022-12-09T23:12:08.989Z,15.60
2022-12-09T23:15:12.373Z,16.85
2022-12-09T23:18:16.415Z,16.63
2022-12-09T23:21:22.483Z,15.53
2022-12-09T23:24:25.279Z,14.90
2022-12-09T23:27:28.162Z,15.53
2022-12-09T23:30:30.977Z,15.17
2022-12-09T23:33:36.314Z,15.77
2022-12-09T23:36:41.227Z,14.97
2022-12-09T23:39:44.164Z,15.23
2022-12-09T23:42:46.781Z,16.13
2022-12-09T23:45:49.404Z,15.87
2022-12-09T23:48:54.698Z,15.17
2022-12-09T23:51:57.345Z,15.67
2022-12-09T23:55:04.354Z,16.83
2022-12-09T23:58:07.266Z,15.93
